createdAt,value
2022-12-04T00:00:11.483Z,48.06
2022-12-04T00:01:11.408Z,48.06
2022-12-04T00:02:11.423Z,48.06
2022-12-04T00:03:11.524Z,45.47
2022-12-04T00:04:11.472Z,44.73
2022-12-04T00:05:11.518Z,45.67
2022-12-04T00:06:11.419Z,45.84
2022-12-04T00:07:11.416Z,46.66
2022-12-04T00:08:11.500Z,47.38
2022-12-04T00:09:11.422Z,47.38
2022-12-04T00:10:11.424Z,46.97
2022-12-04T00:11:11.405Z,46.97
2022-12-04T00:12:11.415Z,48.84
2022-12-04T00:13:11.407Z,47.22
2022-12-04T00:14:11.416Z,46.93
2022-12-04T00:15:26.462Z,46.42
2022-12-04T00:16:11.434Z,45.86
2022-12-04T00:17:11.408Z,45.86
2022-12-04T00:18:11.407Z,46.83
2022-12-04T00:19:11.408Z,46.83
2022-12-04T00:20:11.513Z,46.88
2022-12-04T00:21:11.414Z,46.93
2022-12-04T00:22:11.410Z,48.86
2022-12-04T00:23:11.413Z,48.1
2022-12-04T00:24:11.400Z,47.37
2022-12-04T00:25:11.422Z,46.83
2022-12-04T00:26:11.405Z,46.45
2022-12-04T00:27:11.404Z,47.13
2022-12-04T00:28:11.403Z,47.42
2022-12-04T00:29:11.421Z,48.67
2022-12-04T00:30:11.457Z,48.67
2022-12-04T00:31:11.445Z,46.25
2022-12-04T00:32:11.404Z,45.97
2022-12-04T00:33:11.402Z,45.74
2022-12-04T00:34:11.404Z,45.8
2022-12-04T00:35:11.414Z,46.39
2022-12-04T00:36:11.408Z,46.58
2022-12-04T00:37:11.402Z,46.16
2022-12-04T00:38:11.425Z,46.16
2022-12-04T00:39:11.416Z,46.4
2022-12-04T00:40:11.430Z,46.43
2022-12-04T00:41:11.421Z,46.65
2022-12-04T00:42:11.410Z,47.76
2022-12-04T00:43:11.426Z,47.21
2022-12-04T00:44:11.430Z,46.81
2022-12-04T00:45:11.432Z,46.88
2022-12-04T00:46:11.491Z,46.84
2022-12-04T00:47:11.430Z,48.56
2022-12-04T00:48:11.420Z,46.71
2022-12-04T00:49:11.409Z,46.71
2022-12-04T00:50:11.427Z,45.72
2022-12-04T00:51:11.425Z,46.05
2022-12-04T00:52:11.416Z,46
2022-12-04T00:53:11.405Z,45.89
2022-12-04T00:54:11.419Z,47.14
2022-12-04T00:55:11.432Z,47.96
2022-12-04T00:56:11.421Z,45.84
2022-12-04T00:57:11.427Z,45.84
2022-12-04T00:58:11.413Z,45.84
2022-12-04T00:59:11.439Z,46.58
2022-12-04T01:00:11.592Z,46.58
2022-12-04T01:01:11.489Z,46.58
2022-12-04T01:02:11.423Z,45.71
2022-12-04T01:03:11.604Z,46.65
2022-12-04T01:04:11.471Z,46.03
2022-12-04T01:05:11.432Z,46.28
2022-12-04T01:06:11.419Z,46.5
2022-12-04T01:07:11.422Z,46.97
2022-12-04T01:08:11.517Z,47.72
2022-12-04T01:09:11.419Z,47.72
2022-12-04T01:10:11.422Z,47.72
2022-12-04T01:11:11.426Z,47.72
2022-12-04T01:12:14.928Z,47.72
2022-12-04T01:13:11.412Z,47.72
2022-12-04T01:14:11.439Z,47.72
2022-12-04T01:15:11.431Z,47.72
2022-12-04T01:16:11.450Z,47.72
2022-12-04T01:17:11.419Z,47.72
2022-12-04T01:18:11.422Z,47.72
2022-12-04T01:19:11.399Z,47.72
2022-12-04T01:20:11.441Z,47.72
2022-12-04T01:21:11.414Z,47.72
2022-12-04T01:22:11.423Z,47.72
2022-12-04T01:23:11.418Z,47.72
2022-12-04T01:24:11.422Z,47.72
2022-12-04T01:25:11.426Z,47.72
2022-12-04T01:26:11.425Z,47.72
2022-12-04T01:27:11.398Z,47.72
2022-12-04T01:28:11.407Z,47.72
2022-12-04T01:29:11.422Z,47.72
2022-12-04T01:30:11.427Z,47.72
2022-12-04T01:31:11.504Z,47.72
2022-12-04T01:32:11.516Z,47.72
2022-12-04T01:33:11.407Z,47.72
2022-12-04T01:34:11.410Z,47.72
2022-12-04T01:35:11.421Z,47.72
2022-12-04T01:36:11.402Z,47.72
2022-12-04T01:37:11.428Z,47.72
2022-12-04T01:38:11.399Z,47.72
2022-12-04T01:39:11.406Z,47.72
2022-12-04T01:40:11.420Z,47.72
2022-12-04T01:41:11.409Z,47.72
2022-12-04T01:42:11.400Z,47.72
2022-12-04T01:43:11.406Z,47.72
2022-12-04T01:44:11.421Z,47.72
2022-12-04T01:45:11.422Z,47.72
2022-12-04T01:46:11.524Z,47.72
2022-12-04T01:47:11.400Z,47.72
2022-12-04T01:48:11.403Z,47.72
2022-12-04T01:49:11.409Z,47.72
2022-12-04T01:50:11.421Z,47.72
2022-12-04T01:51:11.414Z,47.72
2022-12-04T01:52:11.421Z,47.72
2022-12-04T01:53:11.421Z,47.72
2022-12-04T01:54:11.427Z,47.72
2022-12-04T01:55:11.441Z,47.72
2022-12-04T01:56:11.419Z,47.72
2022-12-04T01:57:11.414Z,47.72
2022-12-04T01:58:11.424Z,47.72
2022-12-04T01:59:11.428Z,47.72
2022-12-04T02:00:11.445Z,47.72
2022-12-04T02:01:11.499Z,47.72
2022-12-04T02:02:11.548Z,47.72
2022-12-04T02:03:11.471Z,47.72
2022-12-04T02:04:11.417Z,47.72
2022-12-04T02:05:11.427Z,47.72
2022-12-04T02:06:11.417Z,47.72
2022-12-04T02:07:11.421Z,47.72
2022-12-04T02:08:11.482Z,47.72
2022-12-04T02:09:11.425Z,47.72
2022-12-04T02:10:11.439Z,47.72
2022-12-04T02:11:11.443Z,47.72
2022-12-04T02:12:11.415Z,47.72
2022-12-04T02:13:11.429Z,47.72
2022-12-04T02:14:11.429Z,47.72
2022-12-04T02:15:11.510Z,47.72
2022-12-04T02:16:11.449Z,47.72
2022-12-04T02:17:11.405Z,47.72
2022-12-04T02:18:11.419Z,47.72
2022-12-04T02:19:11.421Z,47.72
2022-12-04T02:20:11.425Z,47.72
2022-12-04T02:21:11.421Z,47.72
2022-12-04T02:22:11.420Z,47.72
2022-12-04T02:23:11.420Z,47.72
2022-12-04T02:24:11.487Z,47.72
2022-12-04T02:25:11.438Z,47.72
2022-12-04T02:26:11.416Z,47.72
2022-12-04T02:27:11.424Z,47.72
2022-12-04T02:28:11.413Z,47.72
2022-12-04T02:29:11.428Z,47.72
2022-12-04T02:30:11.433Z,47.72
2022-12-04T02:31:11.487Z,47.72
2022-12-04T02:32:11.412Z,47.72
2022-12-04T02:33:11.417Z,47.72
2022-12-04T02:34:11.398Z,47.72
2022-12-04T02:35:11.424Z,47.72
2022-12-04T02:36:11.419Z,47.72
2022-12-04T02:37:11.415Z,47.72
2022-12-04T02:38:11.422Z,47.72
2022-12-04T02:39:11.413Z,47.72
2022-12-04T02:40:11.432Z,47.72
2022-12-04T02:41:11.420Z,47.72
2022-12-04T02:42:11.422Z,47.72
2022-12-04T02:43:11.416Z,47.72
2022-12-04T02:44:11.426Z,47.72
2022-12-04T02:45:11.421Z,47.72
2022-12-04T02:46:11.482Z,47.72
2022-12-04T02:47:11.403Z,47.72
2022-12-04T02:48:11.400Z,47.72
2022-12-04T02:49:11.482Z,47.72
2022-12-04T02:50:11.416Z,47.72
2022-12-04T02:51:11.404Z,47.72
2022-12-04T02:52:11.411Z,47.72
2022-12-04T02:53:11.407Z,47.72
2022-12-04T02:54:11.400Z,47.72
2022-12-04T02:55:11.493Z,47.72
2022-12-04T02:56:11.414Z,47.72
2022-12-04T02:57:11.405Z,47.72
2022-12-04T02:58:11.402Z,47.72
2022-12-04T02:59:11.422Z,47.72
2022-12-04T03:00:11.434Z,47.72
2022-12-04T03:01:11.424Z,47.72
2022-12-04T03:02:11.515Z,47.72
2022-12-04T03:03:11.407Z,47.72
2022-12-04T03:04:11.421Z,47.72
2022-12-04T03:05:11.420Z,47.72
2022-12-04T03:06:11.407Z,47.72
2022-12-04T03:07:11.423Z,47.72
2022-12-04T03:08:11.489Z,47.72
2022-12-04T03:09:11.419Z,47.72
2022-12-04T03:10:11.439Z,47.72
2022-12-04T03:11:11.403Z,47.72
2022-12-04T03:12:11.422Z,47.72
2022-12-04T03:13:11.433Z,47.72
2022-12-04T03:14:11.431Z,47.72
2022-12-04T03:15:11.434Z,47.72
2022-12-04T03:16:11.422Z,47.72
2022-12-04T03:17:11.454Z,47.72
2022-12-04T03:18:11.417Z,47.72
2022-12-04T03:19:11.611Z,47.72
2022-12-04T03:20:11.439Z,47.72
2022-12-04T03:21:11.433Z,47.72
2022-12-04T03:22:11.422Z,47.72
2022-12-04T03:23:11.422Z,47.72
2022-12-04T03:24:11.428Z,47.72
2022-12-04T03:25:11.503Z,47.72
2022-12-04T03:26:11.420Z,47.72
2022-12-04T03:27:11.418Z,47.72
2022-12-04T03:28:11.400Z,47.72
2022-12-04T03:29:11.441Z,47.72
2022-12-04T03:30:11.424Z,47.72
2022-12-04T03:31:11.495Z,47.72
2022-12-04T03:32:11.420Z,47.72
2022-12-04T03:33:11.422Z,43.64
2022-12-04T03:34:11.422Z,43.66
2022-12-04T03:35:11.443Z,44.2
2022-12-04T03:36:11.403Z,44.2
2022-12-04T03:37:11.416Z,44.23
2022-12-04T03:38:11.417Z,44.1
2022-12-04T03:39:11.402Z,44.69
2022-12-04T03:40:11.437Z,43.71
2022-12-04T03:41:11.417Z,43.48
2022-12-04T03:42:11.422Z,43.52
2022-12-04T03:43:11.418Z,42.62
2022-12-04T03:44:11.441Z,42.78
2022-12-04T03:45:11.447Z,43.04
2022-12-04T03:46:11.584Z,43.04
2022-12-04T03:47:11.421Z,42.91
2022-12-04T03:48:11.420Z,43.72
2022-12-04T03:49:11.421Z,43.76
2022-12-04T03:50:11.432Z,43.57
2022-12-04T03:51:11.430Z,44
2022-12-04T03:52:11.425Z,43.89
2022-12-04T03:53:11.423Z,43.52
2022-12-04T03:54:11.437Z,44.14
2022-12-04T03:55:11.416Z,44.14
2022-12-04T03:56:11.425Z,44.35
2022-12-04T03:57:11.470Z,44.35
2022-12-04T03:58:11.412Z,44.48
2022-12-04T03:59:11.418Z,43.81
2022-12-04T04:00:11.436Z,44.42
2022-12-04T04:01:11.483Z,43.7
2022-12-04T04:02:11.455Z,43.7
2022-12-04T04:03:11.407Z,43.07
2022-12-04T04:04:11.408Z,43.8
2022-12-04T04:05:11.422Z,43.67
2022-12-04T04:06:11.404Z,43.62
2022-12-04T04:07:11.406Z,44.09
2022-12-04T04:08:11.522Z,43.95
2022-12-04T04:09:11.412Z,44.24
2022-12-04T04:10:11.414Z,44.58
2022-12-04T04:11:11.409Z,44.15
2022-12-04T04:12:11.408Z,44.04
2022-12-04T04:13:11.405Z,44.83
2022-12-04T04:14:11.427Z,44.75
2022-12-04T04:15:11.426Z,44.75
2022-12-04T04:16:11.502Z,43.68
2022-12-04T04:17:11.407Z,43.68
2022-12-04T04:18:11.408Z,43.68
2022-12-04T04:19:11.404Z,43.68
2022-12-04T04:20:11.422Z,43.68
2022-12-04T04:21:11.427Z,43.68
2022-12-04T04:22:11.423Z,43.68
2022-12-04T04:23:11.418Z,43.68
2022-12-04T04:24:11.427Z,43.68
2022-12-04T04:25:11.435Z,43.68
2022-12-04T04:26:11.411Z,43.68
2022-12-04T04:27:11.419Z,43.68
2022-12-04T04:28:11.492Z,43.68
2022-12-04T04:29:11.440Z,43.68
2022-12-04T04:30:11.438Z,43.68
2022-12-04T04:31:11.492Z,43.68
2022-12-04T04:32:11.421Z,43.68
2022-12-04T04:33:11.428Z,43.68
2022-12-04T04:34:11.427Z,43.68
2022-12-04T04:35:11.446Z,43.68
2022-12-04T04:36:11.402Z,43.68
2022-12-04T04:37:11.424Z,43.68
2022-12-04T04:38:11.422Z,43.68
2022-12-04T04:39:11.422Z,43.68
2022-12-04T04:40:11.433Z,43.68
2022-12-04T04:41:11.422Z,43.68
2022-12-04T04:42:11.421Z,43.68
2022-12-04T04:43:11.426Z,43.68
2022-12-04T04:44:11.440Z,43.68
2022-12-04T04:45:11.432Z,43.68
2022-12-04T04:46:11.496Z,43.68
2022-12-04T04:47:11.422Z,43.68
2022-12-04T04:48:11.417Z,43.68
2022-12-04T04:49:11.421Z,43.68
2022-12-04T04:50:11.430Z,43.68
2022-12-04T04:51:11.428Z,43.68
2022-12-04T04:52:11.419Z,43.68
2022-12-04T04:53:11.483Z,43.68
2022-12-04T04:54:11.417Z,43.68
2022-12-04T04:55:11.438Z,43.68
2022-12-04T04:56:11.424Z,43.68
2022-12-04T04:57:11.419Z,43.68
2022-12-04T04:58:11.419Z,43.68
2022-12-04T04:59:11.434Z,43.68
2022-12-04T05:00:11.431Z,43.68
2022-12-04T05:01:11.616Z,43.68
2022-12-04T05:02:11.522Z,43.68
2022-12-04T05:03:11.469Z,43.68
2022-12-04T05:04:11.423Z,43.68
2022-12-04T05:05:11.435Z,43.68
2022-12-04T05:06:11.418Z,43.68
2022-12-04T05:07:11.406Z,43.68
2022-12-04T05:08:11.487Z,43.68
2022-12-04T05:09:11.399Z,43.68
2022-12-04T05:10:11.429Z,43.68
2022-12-04T05:11:11.402Z,43.68
2022-12-04T05:12:11.407Z,43.68
2022-12-04T05:13:11.411Z,43.68
2022-12-04T05:14:11.421Z,43.68
2022-12-04T05:15:11.418Z,43.68
2022-12-04T05:16:11.453Z,43.68
2022-12-04T05:17:12.909Z,43.68
2022-12-04T05:18:11.509Z,43.68
2022-12-04T05:19:11.432Z,43.68
2022-12-04T05:20:11.427Z,43.68
2022-12-04T05:21:11.401Z,43.68
2022-12-04T05:22:11.426Z,43.68
2022-12-04T05:23:11.433Z,43.68
2022-12-04T05:24:11.409Z,43.68
2022-12-04T05:25:11.439Z,43.68
2022-12-04T05:26:11.408Z,43.68
2022-12-04T05:27:11.408Z,43.68
2022-12-04T05:28:11.408Z,43.68
2022-12-04T05:29:11.420Z,43.68
2022-12-04T05:30:11.447Z,43.68
2022-12-04T05:31:11.471Z,43.68
2022-12-04T05:32:11.419Z,43.68
2022-12-04T05:33:11.427Z,43.68
2022-12-04T05:34:11.421Z,43.68
2022-12-04T05:35:11.858Z,43.68
2022-12-04T05:36:11.418Z,43.68
2022-12-04T05:37:11.426Z,43.68
2022-12-04T05:38:11.434Z,43.68
2022-12-04T05:39:11.418Z,43.68
2022-12-04T05:40:11.485Z,43.68
2022-12-04T05:41:11.423Z,43.68
2022-12-04T05:42:11.419Z,43.68
2022-12-04T05:43:11.415Z,43.68
2022-12-04T05:44:11.438Z,43.68
2022-12-04T05:45:11.427Z,43.68
2022-12-04T05:46:11.498Z,43.68
2022-12-04T05:47:11.548Z,43.68
2022-12-04T05:48:11.414Z,43.68
2022-12-04T05:49:11.424Z,43.68
2022-12-04T05:50:11.434Z,43.68
2022-12-04T05:51:11.427Z,43.68
2022-12-04T05:52:11.418Z,43.68
2022-12-04T05:53:11.428Z,43.68
2022-12-04T05:54:11.416Z,43.68
2022-12-04T05:55:11.439Z,43.68
2022-12-04T05:56:11.425Z,43.68
2022-12-04T05:57:11.424Z,43.68
2022-12-04T05:58:11.410Z,43.68
2022-12-04T05:59:11.435Z,43.68
2022-12-04T06:00:11.442Z,43.68
2022-12-04T06:01:11.421Z,43.68
2022-12-04T06:02:11.473Z,43.68
2022-12-04T06:03:11.523Z,43.68
2022-12-04T06:04:11.417Z,43.68
2022-12-04T06:05:11.431Z,43.68
2022-12-04T06:06:16.074Z,43.68
2022-12-04T06:07:11.421Z,43.68
2022-12-04T06:08:11.480Z,43.68
2022-12-04T06:09:11.418Z,43.68
2022-12-04T06:10:11.428Z,43.68
2022-12-04T06:11:11.423Z,43.68
2022-12-04T06:12:11.419Z,43.68
2022-12-04T06:13:11.429Z,43.68
2022-12-04T06:14:11.428Z,40.41
2022-12-04T06:15:11.442Z,40.41
2022-12-04T06:16:11.499Z,41.43
2022-12-04T06:17:11.405Z,41.43
2022-12-04T06:18:11.401Z,40.7
2022-12-04T06:19:11.404Z,40.72
2022-12-04T06:20:12.049Z,41.27
2022-12-04T06:21:11.402Z,41.83
2022-12-04T06:22:11.412Z,42.17
2022-12-04T06:23:11.411Z,42.17
2022-12-04T06:24:11.404Z,42.17
2022-12-04T06:25:11.424Z,42.17
2022-12-04T06:26:11.459Z,42.17
2022-12-04T06:27:27.215Z,42.17
2022-12-04T06:28:11.413Z,42.17
2022-12-04T06:29:11.415Z,42.17
2022-12-04T06:30:11.453Z,42.17
2022-12-04T06:31:11.500Z,42.05
2022-12-04T06:32:14.060Z,42.05
2022-12-04T06:33:11.406Z,41.27
2022-12-04T06:34:11.403Z,41.07
2022-12-04T06:35:11.422Z,40.96
2022-12-04T06:36:11.401Z,40.97
2022-12-04T06:37:11.401Z,41.35
2022-12-04T06:38:11.400Z,41.29
2022-12-04T06:39:16.936Z,40.65
2022-12-04T06:40:11.431Z,40.65
2022-12-04T06:41:11.410Z,42.16
2022-12-04T06:42:11.426Z,41.71
2022-12-04T06:43:11.406Z,40.69
2022-12-04T06:44:11.445Z,40.7
2022-12-04T06:45:11.429Z,40.93
2022-12-04T06:46:11.482Z,40.59
2022-12-04T06:47:11.419Z,41.49
2022-12-04T06:48:11.430Z,41.92
2022-12-04T06:49:11.417Z,42.43
2022-12-04T06:50:11.426Z,42.43
2022-12-04T06:51:11.497Z,41.58
2022-12-04T06:52:11.422Z,41.58
2022-12-04T06:53:11.430Z,41.58
2022-12-04T06:54:11.401Z,41.58
2022-12-04T06:55:11.432Z,41.58
2022-12-04T06:56:11.419Z,41.58
2022-12-04T06:57:11.422Z,41.58
2022-12-04T06:58:11.417Z,41.58
2022-12-04T06:59:11.448Z,41.58
2022-12-04T07:00:11.436Z,41.58
2022-12-04T07:01:11.522Z,41.58
2022-12-04T07:02:11.500Z,41.58
2022-12-04T07:03:11.417Z,41.58
2022-12-04T07:04:11.428Z,41.58
2022-12-04T07:05:11.442Z,41.58
2022-12-04T07:06:11.420Z,41.58
2022-12-04T07:07:11.422Z,41.58
2022-12-04T07:08:11.454Z,41.58
2022-12-04T07:09:11.426Z,41.58
2022-12-04T07:10:11.432Z,41.58
2022-12-04T07:11:11.435Z,40.92
2022-12-04T07:12:11.439Z,40.88
2022-12-04T07:13:11.430Z,40.91
2022-12-04T07:14:11.430Z,40.89
2022-12-04T07:15:11.443Z,42.04
2022-12-04T07:16:11.446Z,40.92
2022-12-04T07:17:11.486Z,40.94
2022-12-04T07:18:11.419Z,40.94
2022-12-04T07:19:11.456Z,40.79
2022-12-04T07:20:11.422Z,40.79
2022-12-04T07:21:11.439Z,40.72
2022-12-04T07:22:11.402Z,40.66
2022-12-04T07:23:11.428Z,41.49
2022-12-04T07:24:11.417Z,41.22
2022-12-04T07:25:11.416Z,40.89
2022-12-04T07:26:11.428Z,41.56
2022-12-04T07:27:11.422Z,41.81
2022-12-04T07:28:11.434Z,41.13
2022-12-04T07:29:11.476Z,41.41
2022-12-04T07:30:15.672Z,41.41
2022-12-04T07:31:11.581Z,41.16
2022-12-04T07:32:11.457Z,40.98
2022-12-04T07:33:11.417Z,41.14
2022-12-04T07:34:11.402Z,41.14
2022-12-04T07:35:11.421Z,41.81
2022-12-04T07:36:11.402Z,41.57
2022-12-04T07:37:11.404Z,41.99
2022-12-04T07:38:11.412Z,42
2022-12-04T07:39:11.399Z,42.06
2022-12-04T07:40:11.425Z,42.06
2022-12-04T07:41:11.427Z,42.06
2022-12-04T07:42:11.404Z,42.06
2022-12-04T07:43:11.430Z,42.06
2022-12-04T07:44:11.426Z,42.06
2022-12-04T07:45:11.425Z,42.06
2022-12-04T07:46:11.527Z,42.06
2022-12-04T07:47:11.399Z,42.06
2022-12-04T07:48:11.405Z,42.06
2022-12-04T07:49:11.405Z,42.06
2022-12-04T07:50:11.435Z,42.06
2022-12-04T07:51:11.402Z,42.06
2022-12-04T07:52:11.408Z,42.06
2022-12-04T07:53:11.401Z,42.06
2022-12-04T07:54:11.407Z,42.06
2022-12-04T07:55:11.415Z,42.06
2022-12-04T07:56:11.402Z,42.06
2022-12-04T07:57:11.407Z,42.06
2022-12-04T07:58:11.403Z,42.06
2022-12-04T07:59:11.436Z,42.06
2022-12-04T08:00:11.433Z,42.06
2022-12-04T08:01:11.483Z,42.06
2022-12-04T08:02:11.424Z,42.06
2022-12-04T08:03:11.415Z,42.06
2022-12-04T08:04:11.480Z,42.06
2022-12-04T08:05:11.430Z,42.06
2022-12-04T08:06:11.479Z,42.06
2022-12-04T08:07:11.402Z,42.06
2022-12-04T08:08:11.458Z,42.06
2022-12-04T08:09:11.421Z,42.06
2022-12-04T08:10:11.432Z,42.06
2022-12-04T08:11:11.431Z,42.06
2022-12-04T08:12:11.423Z,42.06
2022-12-04T08:13:11.419Z,42.06
2022-12-04T08:14:11.423Z,42.06
2022-12-04T08:15:11.439Z,42.06
2022-12-04T08:16:11.423Z,42.06
2022-12-04T08:17:11.478Z,42.06
2022-12-04T08:18:11.403Z,42.06
2022-12-04T08:19:11.430Z,42.06
2022-12-04T08:20:11.428Z,42.06
2022-12-04T08:21:11.423Z,42.06
2022-12-04T08:22:11.421Z,42.06
2022-12-04T08:23:11.424Z,42.06
2022-12-04T08:24:11.431Z,42.06
2022-12-04T08:25:11.436Z,42.06
2022-12-04T08:26:11.422Z,42.06
2022-12-04T08:27:11.416Z,42.06
2022-12-04T08:28:11.416Z,42.06
2022-12-04T08:29:11.437Z,42.06
2022-12-04T08:30:11.426Z,42.06
2022-12-04T08:31:11.461Z,42.06
2022-12-04T08:32:11.420Z,42.06
2022-12-04T08:33:11.411Z,42.06
2022-12-04T08:34:11.434Z,42.06
2022-12-04T08:35:11.427Z,42.06
2022-12-04T08:36:11.426Z,42.06
2022-12-04T08:37:11.457Z,42.06
2022-12-04T08:38:11.424Z,42.06
2022-12-04T08:39:11.417Z,42.06
2022-12-04T08:40:11.432Z,42.06
2022-12-04T08:41:11.419Z,42.06
2022-12-04T08:42:11.420Z,42.06
2022-12-04T08:43:11.421Z,42.06
2022-12-04T08:44:11.430Z,42.06
2022-12-04T08:45:11.434Z,42.06
2022-12-04T08:46:11.468Z,42.06
2022-12-04T08:47:11.404Z,42.06
2022-12-04T08:48:11.412Z,42.06
2022-12-04T08:49:11.426Z,37.03
2022-12-04T08:50:11.430Z,36.72
2022-12-04T08:51:11.400Z,37.27
2022-12-04T08:52:11.405Z,37.52
2022-12-04T08:53:11.401Z,37.17
2022-12-04T08:54:11.427Z,37.18
2022-12-04T08:55:11.416Z,37.65
2022-12-04T08:56:11.406Z,37.72
2022-12-04T08:57:11.405Z,37.16
2022-12-04T08:58:11.416Z,36.63
2022-12-04T08:59:11.419Z,36.93
2022-12-04T09:00:11.444Z,36.49
2022-12-04T09:01:11.510Z,37.85
2022-12-04T09:02:11.416Z,36.31
2022-12-04T09:03:11.416Z,36.8
2022-12-04T09:04:11.461Z,35.98
2022-12-04T09:05:11.420Z,36.79
2022-12-04T09:06:11.406Z,36.23
2022-12-04T09:07:11.401Z,35.96
2022-12-04T09:08:11.460Z,36.31
2022-12-04T09:09:11.406Z,36.7
2022-12-04T09:10:11.424Z,36.7
2022-12-04T09:11:11.413Z,36.39
2022-12-04T09:12:11.411Z,36.35
2022-12-04T09:13:11.417Z,36.84
2022-12-04T09:14:11.421Z,36.65
2022-12-04T09:15:11.419Z,36.41
2022-12-04T09:16:11.515Z,36.18
2022-12-04T09:17:11.417Z,36.22
2022-12-04T09:18:11.419Z,36.03
2022-12-04T09:19:11.438Z,36.34
2022-12-04T09:20:11.436Z,36.34
2022-12-04T09:21:11.414Z,36.35
2022-12-04T09:22:11.418Z,36.37
2022-12-04T09:23:11.416Z,36.75
2022-12-04T09:24:11.487Z,36.02
2022-12-04T09:25:11.443Z,35.81
2022-12-04T09:26:11.415Z,36.48
2022-12-04T09:27:14.694Z,35.99
2022-12-04T09:28:11.436Z,36.04
2022-12-04T09:29:11.512Z,35.69
2022-12-04T09:30:11.432Z,35.69
2022-12-04T09:31:11.518Z,35.9
2022-12-04T09:32:11.417Z,35.51
2022-12-04T09:33:11.429Z,35.22
2022-12-04T09:34:11.416Z,35.25
2022-12-04T09:35:11.446Z,35.02
2022-12-04T09:36:11.430Z,35.54
2022-12-04T09:37:11.424Z,34.73
2022-12-04T09:38:11.424Z,34.68
2022-12-04T09:39:11.423Z,34.7
2022-12-04T09:40:12.086Z,34.7
2022-12-04T09:41:11.405Z,34.43
2022-12-04T09:42:11.433Z,34.27
2022-12-04T09:43:11.426Z,34.55
2022-12-04T09:44:11.431Z,34.33
2022-12-04T09:45:11.430Z,34.49
2022-12-04T09:46:11.572Z,34.85
2022-12-04T09:47:11.468Z,34.85
2022-12-04T09:48:11.493Z,33.98
2022-12-04T09:49:11.421Z,34.31
2022-12-04T09:50:11.451Z,34.31
2022-12-04T09:51:11.437Z,34.8
2022-12-04T09:52:11.419Z,34.56
2022-12-04T09:53:11.417Z,34.08
2022-12-04T09:54:11.415Z,35.22
2022-12-04T09:55:11.425Z,35.19
2022-12-04T09:56:11.428Z,34.98
2022-12-04T09:57:11.406Z,34.78
2022-12-04T09:58:11.424Z,34.78
2022-12-04T09:59:11.442Z,35.08
2022-12-04T10:00:11.435Z,35.08
2022-12-04T10:01:11.414Z,34.73
2022-12-04T10:02:11.516Z,34.73
2022-12-04T10:03:11.512Z,34.65
2022-12-04T10:04:11.484Z,34.92
2022-12-04T10:05:11.423Z,35.35
2022-12-04T10:06:11.407Z,35.21
2022-12-04T10:07:11.409Z,35.31
2022-12-04T10:08:11.496Z,35.06
2022-12-04T10:09:11.400Z,35.28
2022-12-04T10:10:11.434Z,35.71
2022-12-04T10:11:11.403Z,36.29
2022-12-04T10:12:11.405Z,35.64
2022-12-04T10:13:11.402Z,36.08
2022-12-04T10:14:11.422Z,35.36
2022-12-04T10:15:11.415Z,35.31
2022-12-04T10:16:11.445Z,34.91
2022-12-04T10:17:11.401Z,35.09
2022-12-04T10:18:11.463Z,35.42
2022-12-04T10:19:11.400Z,35.62
2022-12-04T10:20:11.427Z,35.62
2022-12-04T10:21:11.423Z,36.22
2022-12-04T10:22:11.415Z,35.6
2022-12-04T10:23:14.039Z,34.93
2022-12-04T10:24:11.547Z,35.26
2022-12-04T10:25:11.427Z,35.57
2022-12-04T10:26:11.425Z,35.42
2022-12-04T10:27:11.408Z,35.25
2022-12-04T10:28:11.429Z,35.13
2022-12-04T10:29:11.448Z,34.76
2022-12-04T10:30:11.426Z,34.76
2022-12-04T10:31:11.448Z,35.28
2022-12-04T10:32:11.423Z,35.44
2022-12-04T10:33:11.430Z,35.27
2022-12-04T10:34:11.665Z,35.68
2022-12-04T10:35:11.429Z,35.68
2022-12-04T10:36:11.419Z,35.43
2022-12-04T10:37:11.408Z,35.43
2022-12-04T10:38:11.423Z,35.34
2022-12-04T10:39:11.425Z,35.25
2022-12-04T10:40:11.436Z,35.25
2022-12-04T10:41:14.919Z,34.57
2022-12-04T10:42:11.427Z,34.19
2022-12-04T10:43:11.418Z,34.36
2022-12-04T10:44:11.441Z,34.2
2022-12-04T10:45:11.433Z,34.57
2022-12-04T10:46:11.453Z,34.71
2022-12-04T10:47:11.533Z,34.42
2022-12-04T10:48:11.416Z,34.1
2022-12-04T10:49:11.418Z,34.5
2022-12-04T10:50:11.430Z,34.5
2022-12-04T10:51:11.419Z,35.39
2022-12-04T10:52:11.422Z,35.56
2022-12-04T10:53:13.827Z,35.31
2022-12-04T10:54:11.408Z,35.14
2022-12-04T10:55:11.436Z,34.26
2022-12-04T10:56:11.419Z,34.63
2022-12-04T10:57:11.415Z,34.15
2022-12-04T10:58:11.418Z,34.41
2022-12-04T10:59:11.439Z,35.12
2022-12-04T11:00:11.571Z,35.12
2022-12-04T11:01:11.429Z,34.28
2022-12-04T11:02:11.513Z,33.99
2022-12-04T11:03:11.476Z,33.83
2022-12-04T11:04:11.428Z,34.04
2022-12-04T11:05:11.415Z,34.59
2022-12-04T11:06:11.423Z,34.93
2022-12-04T11:07:11.428Z,34.58
2022-12-04T11:08:15.568Z,34.66
2022-12-04T11:09:11.416Z,34.43
2022-12-04T11:10:11.423Z,34.43
2022-12-04T11:11:11.447Z,34.69
2022-12-04T11:12:11.417Z,33.95
2022-12-04T11:13:11.445Z,33.95
2022-12-04T11:14:11.429Z,34.17
2022-12-04T11:15:11.439Z,34.17
2022-12-04T11:16:11.504Z,34.17
2022-12-04T11:17:11.412Z,34.1
2022-12-04T11:18:11.412Z,34.36
2022-12-04T11:19:11.408Z,34.75
2022-12-04T11:20:11.470Z,34.34
2022-12-04T11:21:11.482Z,34.45
2022-12-04T11:22:11.399Z,34.23
2022-12-04T11:23:11.402Z,33.59
2022-12-04T11:24:11.406Z,34.35
2022-12-04T11:25:11.419Z,33.75
2022-12-04T11:26:11.399Z,33.98
2022-12-04T11:27:11.401Z,33.74
2022-12-04T11:28:22.522Z,34.47
2022-12-04T11:29:11.416Z,34.47
2022-12-04T11:30:11.424Z,34.26
2022-12-04T11:31:11.477Z,34.09
2022-12-04T11:32:11.506Z,34.09
2022-12-04T11:33:11.405Z,33.83
2022-12-04T11:34:11.413Z,33.97
2022-12-04T11:35:11.426Z,34.2
2022-12-04T11:36:11.418Z,33.69
2022-12-04T11:37:11.415Z,33.37
2022-12-04T11:38:11.422Z,33.3
2022-12-04T11:39:11.420Z,33.13
2022-12-04T11:40:11.434Z,33.13
2022-12-04T11:41:11.424Z,34.06
2022-12-04T11:42:11.423Z,33.27
2022-12-04T11:43:11.414Z,32.95
2022-12-04T11:44:11.937Z,33.03
2022-12-04T11:45:11.436Z,33.19
2022-12-04T11:46:11.447Z,33.48
2022-12-04T11:47:11.498Z,33.43
2022-12-04T11:48:11.507Z,33.28
2022-12-04T11:49:11.419Z,33.2
2022-12-04T11:50:11.552Z,33.2
2022-12-04T11:51:11.733Z,33.08
2022-12-04T11:52:11.436Z,33.16
2022-12-04T11:53:11.425Z,33.38
2022-12-04T11:54:11.423Z,33.27
2022-12-04T11:55:11.440Z,33.06
2022-12-04T11:56:11.423Z,32.76
2022-12-04T11:57:11.422Z,33.05
2022-12-04T11:58:11.423Z,32.86
2022-12-04T11:59:11.472Z,33.04
2022-12-04T12:00:11.433Z,33.04
2022-12-04T12:01:11.428Z,33.53
2022-12-04T12:02:11.512Z,33.47
2022-12-04T12:03:11.857Z,32.92
2022-12-04T12:04:11.417Z,32.84
2022-12-04T12:05:11.436Z,32.73
2022-12-04T12:06:11.432Z,32.87
2022-12-04T12:07:11.424Z,33.25
2022-12-04T12:08:11.828Z,33.5
2022-12-04T12:09:11.413Z,33.59
2022-12-04T12:10:13.031Z,33.59
2022-12-04T12:11:11.512Z,33.18
2022-12-04T12:12:11.552Z,32.73
2022-12-04T12:13:11.884Z,32.68
2022-12-04T12:14:11.572Z,32.7
2022-12-04T12:15:11.522Z,33.08
2022-12-04T12:16:11.900Z,32.95
2022-12-04T12:17:11.456Z,32.95
2022-12-04T12:18:11.424Z,32.95
2022-12-04T12:19:11.904Z,32.94
2022-12-04T12:20:11.450Z,32.94
2022-12-04T12:21:11.476Z,32.91
2022-12-04T12:22:11.488Z,33.16
2022-12-04T12:23:11.428Z,33.09
2022-12-04T12:24:11.419Z,33.25
2022-12-04T12:25:16.562Z,33.1
2022-12-04T12:26:11.425Z,33.19
2022-12-04T12:27:11.425Z,33.18
2022-12-04T12:28:11.411Z,33.34
2022-12-04T12:29:11.440Z,33.34
2022-12-04T12:30:12.276Z,33.34
2022-12-04T12:31:11.468Z,33.16
2022-12-04T12:32:11.457Z,33.24
2022-12-04T12:33:11.477Z,33.62
2022-12-04T12:34:11.537Z,33.05
2022-12-04T12:35:11.426Z,33.11
2022-12-04T12:36:11.561Z,32.89
2022-12-04T12:37:11.400Z,33.01
2022-12-04T12:38:11.404Z,33.06
2022-12-04T12:39:11.405Z,33.06
2022-12-04T12:40:11.436Z,33.07
2022-12-04T12:41:11.406Z,32.7
2022-12-04T12:42:11.406Z,32.84
2022-12-04T12:43:11.433Z,33.08
2022-12-04T12:44:11.425Z,32.87
2022-12-04T12:45:11.427Z,33.31
2022-12-04T12:46:11.474Z,32.64
2022-12-04T12:47:11.411Z,32.6
2022-12-04T12:48:11.399Z,32.76
2022-12-04T12:49:11.401Z,32.6
2022-12-04T12:50:11.430Z,32.6
2022-12-04T12:51:29.017Z,32.53
2022-12-04T12:52:11.867Z,32.86
2022-12-04T12:53:11.412Z,32.84
2022-12-04T12:54:11.399Z,32.76